21kousinmaru — JD2168 — position and weather

sailwx.info

Track history (hours):
 
Tides and Currents Weather Stations Pressure Air Temp Water Temp Dewpoint Dewpoint Depression Visibility Wind Speed Wind Dir Waves Ship Positions

21kousinmaru

Last reported at 2016-May-03 07:15 UTC. Time now 2016-May-04 09:45 UTC.
Position N 34°37' E 135°01'.

Length 68 m; draft 4.5 m.

MMSI: 431501835.

Date/timePositionNaut miles runAvg speedWind from/ knotsBaromVisibWave heightAir tempDewpointWater temp
2016-May-03 07:15N 34°37' E 135°01'912.6
2016-May-03 06:33N 34°35' E 135°11'1210.8
2016-May-03 05:29N 34°32' E 135°25'2 0.3
2016-May-02 23:28N 34°33' E 135°23'5 5.1
2016-May-02 22:33N 34°32' E 135°18'1212.4
2016-May-02 21:34N 34°28' E 135°03'3 0.2
2016-May-02 06:34N 34°29' E 135°07'1312.9
2016-May-02 05:31N 34°33' E 135°22'2 0.3
2016-May-01 22:33N 34°33' E 135°25'4 2.0
2016-May-01 20:24N 34°32' E 135°20'0 0.0
2016-May-01 18:13N 34°32' E 135°20'0 0.0
2016-May-01 17:30N 34°32' E 135°20'0 0.1
2016-May-01 16:33N 34°32' E 135°20'0 0.0
2016-May-01 15:04N 34°32' E 135°20'0 0.0
2016-May-01 14:23N 34°32' E 135°20'0 0.0
2016-May-01 13:23N 34°32' E 135°20'0 0.0
2016-May-01 12:32N 34°32' E 135°20'0 0.0
2016-May-01 11:31N 34°32' E 135°20'0 0.0
2016-May-01 10:33N 34°32' E 135°20'0 0.0
2016-May-01 09:33N 34°32' E 135°20'1 0.6
2016-May-01 08:34N 34°32' E 135°19'1312.9
2016-May-01 07:33N 34°23' E 135°07'1412.1
2016-May-01 06:25N 34°11' E 134°60'244 9.4
2016-Apr-30 04:31N 35°14' E 139°46'1111.7
2016-Apr-30 03:34N 35°25' E 139°43'1312.5
2016-Apr-30 02:33N 35°31' E 139°56'5 4.8
2016-Apr-30 01:32N 35°31' E 140°02'0 0.0
2016-Apr-30 00:33N 35°31' E 140°02'0 0.0
2016-Apr-29 23:33N 35°31' E 140°02'1 1.0
2016-Apr-29 22:33N 35°31' E 140°01'6 6.0
2016-Apr-29 21:33N 35°29' E 139°54'0 0.0
2016-Apr-29 20:33N 35°29' E 139°54'0 0.0
2016-Apr-29 19:33N 35°29' E 139°54'0 0.0
2016-Apr-29 18:33N 35°29' E 139°54'0 0.0
2016-Apr-29 17:33N 35°29' E 139°54'0 0.0
2016-Apr-29 16:33N 35°29' E 139°54'0 0.0
2016-Apr-29 15:33N 35°29' E 139°54'0 0.0
2016-Apr-29 14:33N 35°29' E 139°54'0 0.0
2016-Apr-29 13:33N 35°29' E 139°54'0 0.0
2016-Apr-29 12:33N 35°29' E 139°54'0 0.0
2016-Apr-29 11:33N 35°29' E 139°54'0 0.0
2016-Apr-29 10:33N 35°29' E 139°54'8 8.0
2016-Apr-29 09:33N 35°24' E 139°46'10 9.8
2016-Apr-29 08:32N 35°14' E 139°47'245 9.8
2016-Apr-28 07:33N 34°08' E 134°60'1812.5
2016-Apr-28 06:09N 34°25' E 135°06'813.1
2016-Apr-28 05:34N 34°29' E 135°14'10 1.7
2016-Apr-27 23:33N 34°33' E 135°25'5 4.9
2016-Apr-27 22:31N 34°33' E 135°19'0 0.1
2016-Apr-27 21:31N 34°33' E 135°19'0 0.0
2016-Apr-27 20:31N 34°33' E 135°19'0 0.0
2016-Apr-27 19:24N 34°33' E 135°19'0 0.0
2016-Apr-27 16:18N 34°33' E 135°19'0 0.0
2016-Apr-27 15:24N 34°33' E 135°19'0 0.0
2016-Apr-27 14:30N 34°33' E 135°19'0 0.0
2016-Apr-27 13:12N 34°33' E 135°19'0 0.0
2016-Apr-27 12:06N 34°33' E 135°19'0 0.0
2016-Apr-27 11:24N 34°33' E 135°19'0 0.0
2016-Apr-27 10:30N 34°33' E 135°19'3 1.6
2016-Apr-27 08:33N 34°30' E 135°16'2211.0
2016-Apr-27 06:33N 34°13' E 134°60'23910.3
2016-Apr-26 07:21N 35°07' E 139°43'1011.6
2016-Apr-26 06:32N 35°17' E 139°45'1010.2
2016-Apr-26 05:34N 35°26' E 139°46'1212.2
2016-Apr-26 04:33N 35°31' E 139°60'2 2.1
2016-Apr-26 03:33N 35°31' E 140°02'0 0.0
2016-Apr-26 02:33N 35°31' E 140°02'0 0.0
2016-Apr-26 01:33N 35°31' E 140°02'0 0.0
2016-Apr-26 00:33N 35°31' E 140°02'6 6.4
2016-Apr-25 23:33N 35°29' E 139°55'0 0.0
2016-Apr-25 22:33N 35°29' E 139°55'0 0.0
2016-Apr-25 21:33N 35°29' E 139°55'0 0.0
2016-Apr-25 20:34N 35°29' E 139°55'0 0.0
2016-Apr-25 19:34N 35°29' E 139°55'0 0.0
2016-Apr-25 18:33N 35°29' E 139°55'0 0.0
2016-Apr-25 17:34N 35°29' E 139°55'0 0.0
2016-Apr-25 16:34N 35°29' E 139°55'0 0.0
2016-Apr-25 15:33N 35°29' E 139°55'0 0.0
2016-Apr-25 14:33N 35°29' E 139°55'0 0.0
2016-Apr-25 13:33N 35°29' E 139°55'0 0.0
2016-Apr-25 12:33N 35°29' E 139°55'0 0.0
2016-Apr-25 11:33N 35°29' E 139°55'0 0.0
2016-Apr-25 10:33N 35°29' E 139°55'0 0.0
2016-Apr-25 09:33N 35°29' E 139°55'0 0.0
2016-Apr-25 08:33N 35°29' E 139°55'0 0.0
2016-Apr-25 07:33N 35°29' E 139°55'0 0.0
2016-Apr-25 06:33N 35°29' E 139°55'0 0.0
2016-Apr-25 05:34N 35°29' E 139°55'0 0.0
2016-Apr-25 04:34N 35°29' E 139°55'0 0.0
2016-Apr-25 03:34N 35°29' E 139°55'3 3.4
2016-Apr-25 02:33N 35°31' E 139°52'5 5.2
2016-Apr-25 01:33N 35°31' E 139°46'0 0.0
2016-Apr-25 00:33N 35°31' E 139°46'0 0.0
2016-Apr-24 23:34N 35°31' E 139°46'0 0.0
2016-Apr-24 22:34N 35°31' E 139°46'0 0.5
2016-Apr-24 21:33N 35°31' E 139°46'3 3.0
2016-Apr-24 20:34N 35°29' E 139°49'0 0.0
2016-Apr-24 19:33N 35°29' E 139°49'0 0.0
2016-Apr-24 18:33N 35°29' E 139°49'0 0.0
2016-Apr-24 17:34N 35°29' E 139°49'0 0.0
2016-Apr-24 16:33N 35°29' E 139°49'0 0.0
2016-Apr-24 15:33N 35°29' E 139°49'0 0.0
2016-Apr-24 14:33N 35°29' E 139°49'0 0.0
2016-Apr-24 13:33N 35°29' E 139°49'0 0.0
2016-Apr-24 12:34N 35°29' E 139°49'0 0.0
2016-Apr-24 11:34N 35°29' E 139°49'0 0.1
2016-Apr-24 10:33N 35°29' E 139°49'0 0.0
2016-Apr-24 09:34N 35°29' E 139°49'0 0.1
2016-Apr-24 08:33N 35°29' E 139°49'0 0.1
2016-Apr-24 07:33N 35°29' E 139°49'0 0.1
2016-Apr-24 06:33N 35°29' E 139°49'0 0.1
2016-Apr-24 05:33N 35°29' E 139°49'0 0.3
2016-Apr-24 04:34N 35°28' E 139°49'1211.8
2016-Apr-24 03:33N 35°17' E 139°46'1211.8
2016-Apr-24 02:31N 35°05' E 139°45'  
Track history (hours):
 
Tides and Currents Weather Stations Pressure Air Temp Water Temp Dewpoint Dewpoint Depression Visibility Wind Speed Wind Dir Waves Ship Positions

21kousinmaru

Last reported at 2016-May-03 07:15 UTC. Time now 2016-May-04 09:45 UTC.
Position N 34°37' E 135°01'.

Length 68 m; draft 4.5 m.

MMSI: 431501835.

Date/timePositionNaut miles runAvg speedWind from/ knotsBaromVisibWave heightAir tempDewpointWater temp
2016-May-03 07:15N 34°37' E 135°01'912.6
2016-May-03 06:33N 34°35' E 135°11'1210.8
2016-May-03 05:29N 34°32' E 135°25'2 0.3
2016-May-02 23:28N 34°33' E 135°23'5 5.1
2016-May-02 22:33N 34°32' E 135°18'1212.4
2016-May-02 21:34N 34°28' E 135°03'3 0.2
2016-May-02 06:34N 34°29' E 135°07'1312.9
2016-May-02 05:31N 34°33' E 135°22'2 0.3
2016-May-01 22:33N 34°33' E 135°25'4 2.0
2016-May-01 20:24N 34°32' E 135°20'0 0.0
2016-May-01 18:13N 34°32' E 135°20'0 0.0
2016-May-01 17:30N 34°32' E 135°20'0 0.1
2016-May-01 16:33N 34°32' E 135°20'0 0.0
2016-May-01 15:04N 34°32' E 135°20'0 0.0
2016-May-01 14:23N 34°32' E 135°20'0 0.0
2016-May-01 13:23N 34°32' E 135°20'0 0.0
2016-May-01 12:32N 34°32' E 135°20'0 0.0
2016-May-01 11:31N 34°32' E 135°20'0 0.0
2016-May-01 10:33N 34°32' E 135°20'0 0.0
2016-May-01 09:33N 34°32' E 135°20'1 0.6
2016-May-01 08:34N 34°32' E 135°19'1312.9
2016-May-01 07:33N 34°23' E 135°07'1412.1
2016-May-01 06:25N 34°11' E 134°60'244 9.4
2016-Apr-30 04:31N 35°14' E 139°46'1111.7
2016-Apr-30 03:34N 35°25' E 139°43'1312.5
2016-Apr-30 02:33N 35°31' E 139°56'5 4.8
2016-Apr-30 01:32N 35°31' E 140°02'0 0.0
2016-Apr-30 00:33N 35°31' E 140°02'0 0.0
2016-Apr-29 23:33N 35°31' E 140°02'1 1.0
2016-Apr-29 22:33N 35°31' E 140°01'6 6.0
2016-Apr-29 21:33N 35°29' E 139°54'0 0.0
2016-Apr-29 20:33N 35°29' E 139°54'0 0.0
2016-Apr-29 19:33N 35°29' E 139°54'0 0.0
2016-Apr-29 18:33N 35°29' E 139°54'0 0.0
2016-Apr-29 17:33N 35°29' E 139°54'0 0.0
2016-Apr-29 16:33N 35°29' E 139°54'0 0.0
2016-Apr-29 15:33N 35°29' E 139°54'0 0.0
2016-Apr-29 14:33N 35°29' E 139°54'0 0.0
2016-Apr-29 13:33N 35°29' E 139°54'0 0.0
2016-Apr-29 12:33N 35°29' E 139°54'0 0.0
2016-Apr-29 11:33N 35°29' E 139°54'0 0.0
2016-Apr-29 10:33N 35°29' E 139°54'8 8.0
2016-Apr-29 09:33N 35°24' E 139°46'10 9.8
2016-Apr-29 08:32N 35°14' E 139°47'245 9.8
2016-Apr-28 07:33N 34°08' E 134°60'1812.5
2016-Apr-28 06:09N 34°25' E 135°06'813.1
2016-Apr-28 05:34N 34°29' E 135°14'10 1.7
2016-Apr-27 23:33N 34°33' E 135°25'5 4.9
2016-Apr-27 22:31N 34°33' E 135°19'0 0.1
2016-Apr-27 21:31N 34°33' E 135°19'0 0.0
2016-Apr-27 20:31N 34°33' E 135°19'0 0.0
2016-Apr-27 19:24N 34°33' E 135°19'0 0.0
2016-Apr-27 16:18N 34°33' E 135°19'0 0.0
2016-Apr-27 15:24N 34°33' E 135°19'0 0.0
2016-Apr-27 14:30N 34°33' E 135°19'0 0.0
2016-Apr-27 13:12N 34°33' E 135°19'0 0.0
2016-Apr-27 12:06N 34°33' E 135°19'0 0.0
2016-Apr-27 11:24N 34°33' E 135°19'0 0.0
2016-Apr-27 10:30N 34°33' E 135°19'3 1.6
2016-Apr-27 08:33N 34°30' E 135°16'2211.0
2016-Apr-27 06:33N 34°13' E 134°60'23910.3
2016-Apr-26 07:21N 35°07' E 139°43'1011.6
2016-Apr-26 06:32N 35°17' E 139°45'1010.2
2016-Apr-26 05:34N 35°26' E 139°46'1212.2
2016-Apr-26 04:33N 35°31' E 139°60'2 2.1
2016-Apr-26 03:33N 35°31' E 140°02'0 0.0
2016-Apr-26 02:33N 35°31' E 140°02'0 0.0
2016-Apr-26 01:33N 35°31' E 140°02'0 0.0
2016-Apr-26 00:33N 35°31' E 140°02'6 6.4
2016-Apr-25 23:33N 35°29' E 139°55'0 0.0
2016-Apr-25 22:33N 35°29' E 139°55'0 0.0
2016-Apr-25 21:33N 35°29' E 139°55'0 0.0
2016-Apr-25 20:34N 35°29' E 139°55'0 0.0
2016-Apr-25 19:34N 35°29' E 139°55'0 0.0
2016-Apr-25 18:33N 35°29' E 139°55'0 0.0
2016-Apr-25 17:34N 35°29' E 139°55'0 0.0
2016-Apr-25 16:34N 35°29' E 139°55'0 0.0
2016-Apr-25 15:33N 35°29' E 139°55'0 0.0
2016-Apr-25 14:33N 35°29' E 139°55'0 0.0
2016-Apr-25 13:33N 35°29' E 139°55'0 0.0
2016-Apr-25 12:33N 35°29' E 139°55'0 0.0
2016-Apr-25 11:33N 35°29' E 139°55'0 0.0
2016-Apr-25 10:33N 35°29' E 139°55'0 0.0
2016-Apr-25 09:33N 35°29' E 139°55'0 0.0
2016-Apr-25 08:33N 35°29' E 139°55'0 0.0
2016-Apr-25 07:33N 35°29' E 139°55'0 0.0
2016-Apr-25 06:33N 35°29' E 139°55'0 0.0
2016-Apr-25 05:34N 35°29' E 139°55'0 0.0
2016-Apr-25 04:34N 35°29' E 139°55'0 0.0
2016-Apr-25 03:34N 35°29' E 139°55'3 3.4
2016-Apr-25 02:33N 35°31' E 139°52'5 5.2
2016-Apr-25 01:33N 35°31' E 139°46'0 0.0
2016-Apr-25 00:33N 35°31' E 139°46'0 0.0
2016-Apr-24 23:34N 35°31' E 139°46'0 0.0
2016-Apr-24 22:34N 35°31' E 139°46'0 0.5
2016-Apr-24 21:33N 35°31' E 139°46'3 3.0
2016-Apr-24 20:34N 35°29' E 139°49'0 0.0
2016-Apr-24 19:33N 35°29' E 139°49'0 0.0
2016-Apr-24 18:33N 35°29' E 139°49'0 0.0
2016-Apr-24 17:34N 35°29' E 139°49'0 0.0
2016-Apr-24 16:33N 35°29' E 139°49'0 0.0
2016-Apr-24 15:33N 35°29' E 139°49'0 0.0
2016-Apr-24 14:33N 35°29' E 139°49'0 0.0
2016-Apr-24 13:33N 35°29' E 139°49'0 0.0
2016-Apr-24 12:34N 35°29' E 139°49'0 0.0
2016-Apr-24 11:34N 35°29' E 139°49'0 0.1
2016-Apr-24 10:33N 35°29' E 139°49'0 0.0
2016-Apr-24 09:34N 35°29' E 139°49'0 0.1
2016-Apr-24 08:33N 35°29' E 139°49'0 0.1
2016-Apr-24 07:33N 35°29' E 139°49'0 0.1
2016-Apr-24 06:33N 35°29' E 139°49'0 0.1
2016-Apr-24 05:33N 35°29' E 139°49'0 0.3
2016-Apr-24 04:34N 35°28' E 139°49'1211.8
2016-Apr-24 03:33N 35°17' E 139°46'1211.8
2016-Apr-24 02:31N 35°05' E 139°45'  

Dump ship's entire track history